createdAt,value
2023-04-09T00:00:00.819Z,100.00
2023-04-09T00:02:29.656Z,100.00
2023-04-09T00:04:58.013Z,100.00
2023-04-09T00:07:26.277Z,100.00
2023-04-09T00:09:54.450Z,100.00
2023-04-09T00:12:22.682Z,100.00
2023-04-09T00:14:50.928Z,100.00
2023-04-09T00:17:19.256Z,100.00
2023-04-09T00:19:48.615Z,100.00
2023-04-09T00:22:19.004Z,100.00
2023-04-09T00:24:47.456Z,100.00
2023-04-09T00:27:16.514Z,100.00
2023-04-09T00:29:45.500Z,100.00
2023-04-09T00:32:13.946Z,100.00
2023-04-09T00:34:42.321Z,100.00
2023-04-09T00:37:10.556Z,100.00
2023-04-09T00:39:38.779Z,100.00
2023-04-09T00:42:07.168Z,100.00
2023-04-09T00:44:36.324Z,100.00
2023-04-09T00:47:04.847Z,100.00
2023-04-09T00:49:33.951Z,100.00
2023-04-09T00:52:02.414Z,100.00
2023-04-09T00:54:31.167Z,100.00
2023-04-09T00:56:59.754Z,100.00
2023-04-09T00:59:28.839Z,100.00
2023-04-09T01:01:57.130Z,100.00
2023-04-09T01:04:26.799Z,100.00
2023-04-09T01:07:20.965Z,100.00
2023-04-09T01:10:01.067Z,100.00
2023-04-09T01:12:37.334Z,100.00
2023-04-09T01:15:16.335Z,100.00
2023-04-09T01:17:53.507Z,100.00
2023-04-09T01:20:33.599Z,100.00
2023-04-09T01:23:18.191Z,100.00
2023-04-09T01:26:04.124Z,100.00
2023-04-09T01:28:49.241Z,100.00
2023-04-09T01:31:19.225Z,100.00
2023-04-09T01:33:48.205Z,100.00
2023-04-09T01:36:17.510Z,100.00
2023-04-09T01:38:48.029Z,100.00
2023-04-09T01:41:19.609Z,100.00
2023-04-09T01:43:51.038Z,100.00
2023-04-09T01:46:21.647Z,100.00
2023-04-09T01:48:55.893Z,100.00
2023-04-09T01:51:24.454Z,100.00
2023-04-09T01:53:52.890Z,100.00
2023-04-09T01:56:21.789Z,100.00
2023-04-09T01:58:51.212Z,100.00
2023-04-09T02:01:37.037Z,100.00
2023-04-09T02:04:13.171Z,100.00
2023-04-09T02:06:54.165Z,100.00
2023-04-09T02:09:25.097Z,100.00
2023-04-09T02:11:54.159Z,100.00
2023-04-09T02:14:25.271Z,100.00
2023-04-09T02:16:53.675Z,100.00
2023-04-09T02:19:22.006Z,100.00
2023-04-09T02:21:51.491Z,100.00
2023-04-09T02:24:19.728Z,100.00
2023-04-09T02:26:48.758Z,100.00
2023-04-09T02:29:16.967Z,100.00
2023-04-09T02:31:45.437Z,100.00
2023-04-09T02:34:13.786Z,100.00
2023-04-09T02:36:42.003Z,100.00
2023-04-09T02:39:10.306Z,100.00
2023-04-09T02:41:38.539Z,100.00
2023-04-09T02:44:06.748Z,100.00
2023-04-09T02:46:34.983Z,100.00
2023-04-09T02:49:04.083Z,100.00
2023-04-09T02:51:34.327Z,100.00
2023-04-09T02:54:03.639Z,100.00
2023-04-09T02:56:31.927Z,100.00
2023-04-09T02:59:00.323Z,100.00
2023-04-09T03:01:29.106Z,100.00
2023-04-09T03:03:57.632Z,100.00
2023-04-09T03:06:26.744Z,100.00
2023-04-09T03:08:55.017Z,100.00
2023-04-09T03:11:24.206Z,100.00
2023-04-09T03:13:52.497Z,100.00
2023-04-09T03:16:21.911Z,100.00
2023-04-09T03:18:51.426Z,100.00
2023-04-09T03:21:19.837Z,100.00
2023-04-09T03:23:49.562Z,100.00
2023-04-09T03:26:19.463Z,100.00
2023-04-09T03:28:50.169Z,100.00
2023-04-09T03:31:18.752Z,100.00
2023-04-09T03:33:47.622Z,100.00
2023-04-09T03:36:16.165Z,100.00
2023-04-09T03:39:04.588Z,100.00
2023-04-09T03:41:38.198Z,100.00
2023-04-09T03:44:10.128Z,100.00
2023-04-09T03:46:58.719Z,100.00
2023-04-09T03:49:27.336Z,100.00
2023-04-09T03:52:00.031Z,100.00
2023-04-09T03:54:35.580Z,100.00
2023-04-09T03:57:06.840Z,100.00
2023-04-09T03:59:36.045Z,100.00
2023-04-09T04:02:04.360Z,100.00
2023-04-09T04:04:34.142Z,100.00
2023-04-09T04:07:09.033Z,100.00
2023-04-09T04:09:42.754Z,100.00
2023-04-09T04:12:16.256Z,100.00
2023-04-09T04:15:06.937Z,100.00
2023-04-09T04:17:39.923Z,100.00
2023-04-09T04:20:15.116Z,100.00
2023-04-09T04:22:54.020Z,100.00
2023-04-09T04:25:25.445Z,100.00
2023-04-09T04:27:55.108Z,100.00
2023-04-09T04:30:26.217Z,100.00
2023-04-09T04:33:01.248Z,100.00
2023-04-09T04:35:31.791Z,100.00
2023-04-09T04:38:01.702Z,100.00
2023-04-09T04:40:30.374Z,100.00
2023-04-09T04:43:01.657Z,100.00
2023-04-09T04:45:30.708Z,100.00
2023-04-09T04:48:04.882Z,100.00
2023-04-09T04:50:33.202Z,100.00
2023-04-09T04:53:05.579Z,100.00
2023-04-09T04:55:40.078Z,100.00
2023-04-09T04:58:09.453Z,100.00
2023-04-09T05:00:49.973Z,100.00
2023-04-09T05:03:18.415Z,100.00
2023-04-09T05:06:06.168Z,100.00
2023-04-09T05:08:41.819Z,100.00
2023-04-09T05:11:16.705Z,100.00
2023-04-09T05:13:46.518Z,100.00
2023-04-09T05:16:20.574Z,100.00
2023-04-09T05:18:54.073Z,100.00
2023-04-09T05:21:22.770Z,100.00
2023-04-09T05:23:56.012Z,100.00
2023-04-09T05:26:24.325Z,100.00
2023-04-09T05:28:56.630Z,100.00
2023-04-09T05:31:25.256Z,100.00
2023-04-09T05:34:12.650Z,100.00
2023-04-09T05:36:48.953Z,100.00
2023-04-09T05:39:17.344Z,100.00
2023-04-09T05:41:46.890Z,100.00
2023-04-09T05:44:34.737Z,100.00
2023-04-09T05:47:08.273Z,100.00
2023-04-09T05:49:48.090Z,100.00
2023-04-09T05:52:17.990Z,100.00
2023-04-09T05:54:47.213Z,100.00
2023-04-09T05:57:18.445Z,100.00
2023-04-09T05:59:52.337Z,100.00
2023-04-09T06:02:25.841Z,100.00
2023-04-09T06:04:55.856Z,100.00
2023-04-09T06:07:24.358Z,99.81
2023-04-09T06:09:52.591Z,100.00
2023-04-09T06:12:21.122Z,99.89
2023-04-09T06:14:50.240Z,96.20
2023-04-09T06:17:19.647Z,87.26
2023-04-09T06:19:50.955Z,87.56
2023-04-09T06:22:19.357Z,80.79
2023-04-09T06:24:48.120Z,86.42
2023-04-09T06:27:19.284Z,90.60
2023-04-09T06:29:50.303Z,86.86
2023-04-09T06:32:19.560Z,84.81
2023-04-09T06:34:48.558Z,84.99
2023-04-09T06:37:16.894Z,81.22
2023-04-09T06:39:54.185Z,75.95
2023-04-09T06:42:28.548Z,88.08
2023-04-09T06:45:10.766Z,82.88
2023-04-09T06:47:39.090Z,80.72
2023-04-09T06:50:08.672Z,85.02
2023-04-09T06:52:37.265Z,82.89
2023-04-09T06:55:11.838Z,79.22
2023-04-09T06:57:41.733Z,79.00
2023-04-09T07:00:10.902Z,78.21
2023-04-09T07:02:39.758Z,82.18
2023-04-09T07:05:11.858Z,86.31
2023-04-09T07:07:40.628Z,89.96
2023-04-09T07:10:10.825Z,90.36
2023-04-09T07:12:39.180Z,89.12
2023-04-09T07:15:09.443Z,83.52
2023-04-09T07:17:39.902Z,80.45
2023-04-09T07:20:08.691Z,76.60
2023-04-09T07:22:36.908Z,77.81
2023-04-09T07:25:07.002Z,72.51
2023-04-09T07:27:35.603Z,72.27
2023-04-09T07:30:06.828Z,71.27
2023-04-09T07:32:34.982Z,75.02
2023-04-09T07:35:05.202Z,78.75
2023-04-09T07:37:33.546Z,80.24
2023-04-09T07:40:04.356Z,81.98
2023-04-09T07:42:33.703Z,85.40
2023-04-09T07:45:03.564Z,85.75
2023-04-09T07:47:33.960Z,87.37
2023-04-09T07:50:02.564Z,87.72
2023-04-09T07:52:33.528Z,87.99
2023-04-09T07:55:01.956Z,88.59
2023-04-09T07:57:33.859Z,88.90
2023-04-09T08:00:02.668Z,90.34
2023-04-09T08:02:42.202Z,91.13
2023-04-09T08:05:10.947Z,91.44
2023-04-09T08:07:39.854Z,91.77
2023-04-09T08:10:14.335Z,91.80
2023-04-09T08:12:48.069Z,92.44
2023-04-09T08:15:16.523Z,92.63
2023-04-09T08:17:46.561Z,92.32
2023-04-09T08:20:17.443Z,92.55
2023-04-09T08:22:45.910Z,93.24
2023-04-09T08:25:14.126Z,94.40
2023-04-09T08:27:43.398Z,94.88
2023-04-09T08:30:12.349Z,96.20
2023-04-09T08:32:40.872Z,96.83
2023-04-09T08:35:09.980Z,97.18
2023-04-09T08:37:40.153Z,97.05
2023-04-09T08:40:09.612Z,97.42
2023-04-09T08:42:46.122Z,98.04
2023-04-09T08:45:14.525Z,98.97
2023-04-09T08:47:46.248Z,99.81
2023-04-09T08:50:15.724Z,99.94
2023-04-09T08:52:48.466Z,99.94
2023-04-09T08:55:17.007Z,98.96
2023-04-09T08:57:45.420Z,99.02
2023-04-09T09:00:14.104Z,98.56
2023-04-09T09:03:06.745Z,98.72
2023-04-09T09:05:43.006Z,99.40
2023-04-09T09:08:15.754Z,99.94
2023-04-09T09:10:46.212Z,100.00
2023-04-09T09:13:20.215Z,100.00
2023-04-09T09:15:53.141Z,100.00
2023-04-09T09:18:38.293Z,100.00
2023-04-09T09:21:17.895Z,100.00
2023-04-09T09:23:48.561Z,100.00
2023-04-09T09:26:25.678Z,100.00
2023-04-09T09:28:55.030Z,100.00
2023-04-09T09:31:23.991Z,100.00
2023-04-09T09:33:53.575Z,100.00
2023-04-09T09:36:35.736Z,100.00
2023-04-09T09:39:05.592Z,100.00
2023-04-09T09:41:33.994Z,100.00
2023-04-09T09:44:04.709Z,100.00
2023-04-09T09:46:42.792Z,100.00
2023-04-09T09:49:11.612Z,100.00
2023-04-09T09:51:41.656Z,100.00
2023-04-09T09:54:17.942Z,100.00
2023-04-09T09:56:54.043Z,100.00
2023-04-09T09:59:32.256Z,100.00
2023-04-09T10:02:06.350Z,100.00
2023-04-09T10:04:36.289Z,100.00
2023-04-09T10:07:07.740Z,100.00
2023-04-09T10:09:41.730Z,100.00
2023-04-09T10:12:12.405Z,100.00
2023-04-09T10:14:42.446Z,100.00
2023-04-09T10:17:11.702Z,99.98
2023-04-09T10:19:47.945Z,99.73
2023-04-09T10:22:20.560Z,99.77
2023-04-09T10:24:50.110Z,100.00
2023-04-09T10:27:19.689Z,99.71
2023-04-09T10:29:53.305Z,99.03
2023-04-09T10:32:26.592Z,99.48
2023-04-09T10:35:01.920Z,99.74
2023-04-09T10:37:32.098Z,100.00
2023-04-09T10:40:04.237Z,98.13
2023-04-09T10:42:37.452Z,99.87
2023-04-09T10:45:15.400Z,99.73
2023-04-09T10:47:46.556Z,99.50
2023-04-09T10:50:24.099Z,100.00
2023-04-09T10:52:59.756Z,99.97
2023-04-09T10:55:42.127Z,100.00
2023-04-09T10:58:13.563Z,99.73
2023-04-09T11:00:48.846Z,100.00
2023-04-09T11:03:42.776Z,100.00
2023-04-09T11:06:12.268Z,99.82
2023-04-09T11:08:41.857Z,97.29
2023-04-09T11:11:14.603Z,96.61
2023-04-09T11:13:45.806Z,94.48
2023-04-09T11:16:23.258Z,93.82
2023-04-09T11:18:56.310Z,95.70
2023-04-09T11:21:31.595Z,95.34
2023-04-09T11:24:00.167Z,94.12
2023-04-09T11:26:37.933Z,93.65
2023-04-09T11:29:09.734Z,93.09
2023-04-09T11:31:38.124Z,90.55
2023-04-09T11:34:13.036Z,88.65
2023-04-09T11:36:42.080Z,86.26
2023-04-09T11:39:12.009Z,82.78
2023-04-09T11:41:41.035Z,81.89
2023-04-09T11:44:09.353Z,82.96
2023-04-09T11:46:40.152Z,82.52
2023-04-09T11:49:10.431Z,82.46
2023-04-09T11:51:40.090Z,84.59
2023-04-09T11:54:08.982Z,82.80
2023-04-09T11:56:37.761Z,83.87
2023-04-09T11:59:06.668Z,84.45
2023-04-09T12:01:35.544Z,86.77
2023-04-09T12:04:05.890Z,88.08
2023-04-09T12:06:40.539Z,88.40
2023-04-09T12:09:13.806Z,86.86
2023-04-09T12:11:47.134Z,89.50
2023-04-09T12:14:18.963Z,88.92
2023-04-09T12:16:51.799Z,90.05
2023-04-09T12:19:25.575Z,88.19
2023-04-09T12:21:58.713Z,85.57
2023-04-09T12:24:29.849Z,85.21
2023-04-09T12:26:58.135Z,85.69
2023-04-09T12:29:27.190Z,86.51
2023-04-09T12:31:55.664Z,85.16
2023-04-09T12:34:24.569Z,85.45
2023-04-09T12:36:52.878Z,86.99
2023-04-09T12:39:21.565Z,86.31
2023-04-09T12:41:49.974Z,83.71
2023-04-09T12:44:18.239Z,81.12
2023-04-09T12:46:46.499Z,78.70
2023-04-09T12:49:16.332Z,77.88
2023-04-09T12:51:44.983Z,76.88
2023-04-09T12:54:13.392Z,76.38
2023-04-09T12:56:45.572Z,76.22
2023-04-09T12:59:18.993Z,75.41
2023-04-09T13:01:47.440Z,76.92
2023-04-09T13:04:16.666Z,76.51
2023-04-09T13:09:51.670Z,77.46
2023-04-09T13:12:21.787Z,76.65
2023-04-09T13:14:54.081Z,75.70
2023-04-09T13:17:23.988Z,74.36
2023-04-09T13:19:52.878Z,72.47
2023-04-09T13:22:21.705Z,72.24
2023-04-09T13:24:51.126Z,72.62
2023-04-09T13:27:19.544Z,69.43
2023-04-09T13:29:47.895Z,69.37
2023-04-09T13:32:18.667Z,69.88
2023-04-09T13:34:47.044Z,70.64
2023-04-09T13:37:15.931Z,70.28
2023-04-09T13:39:46.384Z,65.38
2023-04-09T13:42:16.295Z,62.22
2023-04-09T13:44:47.288Z,56.53
2023-04-09T13:47:17.903Z,56.51
2023-04-09T13:49:46.326Z,54.90
2023-04-09T13:52:15.755Z,59.78
2023-04-09T13:54:44.700Z,60.15
2023-04-09T13:57:12.967Z,58.47
2023-04-09T13:59:47.262Z,58.08
2023-04-09T14:02:15.762Z,57.18
2023-04-09T14:04:45.604Z,58.53
2023-04-09T14:07:13.909Z,55.73
2023-04-09T14:09:43.325Z,58.22
2023-04-09T14:12:14.218Z,59.75
2023-04-09T14:14:44.242Z,60.30
2023-04-09T14:17:12.875Z,60.19
2023-04-09T14:19:41.240Z,60.79
2023-04-09T14:22:10.557Z,59.52
2023-04-09T14:24:40.286Z,60.35
2023-04-09T14:27:11.263Z,62.51
2023-04-09T14:29:39.789Z,63.42
2023-04-09T14:32:09.401Z,63.38
2023-04-09T14:34:39.108Z,62.82
2023-04-09T14:37:08.729Z,63.27
2023-04-09T14:39:37.937Z,63.68
2023-04-09T14:42:06.556Z,63.77
2023-04-09T14:44:36.974Z,63.74
2023-04-09T14:47:05.960Z,64.05
2023-04-09T14:49:34.489Z,63.29
2023-04-09T14:52:02.987Z,63.65
2023-04-09T14:54:32.453Z,64.12
2023-04-09T14:57:03.680Z,64.66
2023-04-09T14:59:32.464Z,66.02
2023-04-09T15:02:01.744Z,69.75
2023-04-09T15:04:30.190Z,73.43
2023-04-09T15:06:58.532Z,74.88
2023-04-09T15:09:27.270Z,75.59
2023-04-09T15:11:57.204Z,78.57
2023-04-09T15:14:31.049Z,81.58
2023-04-09T15:16:59.417Z,84.66
2023-04-09T15:19:27.883Z,92.14
2023-04-09T15:21:56.804Z,99.80
2023-04-09T15:24:25.611Z,100.00
2023-04-09T15:26:57.042Z,100.00
2023-04-09T15:29:26.313Z,100.00
2023-04-09T15:31:54.652Z,100.00
2023-04-09T15:34:23.501Z,100.00
2023-04-09T15:36:52.732Z,100.00
2023-04-09T15:39:24.756Z,100.00
2023-04-09T15:41:58.452Z,100.00
2023-04-09T15:44:39.646Z,99.86
2023-04-09T15:47:19.526Z,100.00
2023-04-09T15:49:47.763Z,98.23
2023-04-09T15:52:16.219Z,95.53
2023-04-09T15:54:47.150Z,94.49
2023-04-09T15:57:15.749Z,93.71
2023-04-09T15:59:47.186Z,94.13
2023-04-09T16:02:15.637Z,94.15
2023-04-09T16:04:43.957Z,91.75
2023-04-09T16:07:16.331Z,90.47
2023-04-09T16:09:46.280Z,90.74
2023-04-09T16:12:14.869Z,91.46
2023-04-09T16:14:43.815Z,91.01
2023-04-09T16:17:12.079Z,90.10
2023-04-09T16:19:42.181Z,89.32
2023-04-09T16:22:12.238Z,88.47
2023-04-09T16:24:40.690Z,88.77
2023-04-09T16:27:08.974Z,86.12
2023-04-09T16:29:38.347Z,88.56
2023-04-09T16:32:06.766Z,89.79
2023-04-09T16:34:36.737Z,89.07
2023-04-09T16:37:08.040Z,89.24
2023-04-09T16:39:36.921Z,89.26
2023-04-09T16:42:05.170Z,90.55
2023-04-09T16:44:33.380Z,89.97
2023-04-09T16:47:02.873Z,89.97
2023-04-09T16:49:32.874Z,90.14
2023-04-09T16:52:02.088Z,91.43
2023-04-09T16:54:31.093Z,90.63
2023-04-09T16:56:59.866Z,91.11
2023-04-09T16:59:28.338Z,91.03
2023-04-09T17:01:56.842Z,90.91
2023-04-09T17:04:25.734Z,93.01
2023-04-09T17:06:54.241Z,92.91
2023-04-09T17:09:22.570Z,95.21
2023-04-09T17:11:53.171Z,96.37
2023-04-09T17:14:21.597Z,99.82
2023-04-09T17:16:52.998Z,99.77
2023-04-09T17:19:22.523Z,99.74
2023-04-09T17:21:51.093Z,100.00
2023-04-09T17:24:19.447Z,100.00
2023-04-09T17:26:47.664Z,100.00
2023-04-09T17:29:17.815Z,100.00
2023-04-09T17:31:50.854Z,100.00
2023-04-09T17:34:24.487Z,100.00
2023-04-09T17:36:57.440Z,100.00
2023-04-09T17:39:26.567Z,100.00
2023-04-09T17:41:57.394Z,100.00
2023-04-09T17:44:27.147Z,100.00
2023-04-09T17:47:04.261Z,100.00
2023-04-09T17:49:35.669Z,100.00
2023-04-09T17:52:03.983Z,100.00
2023-04-09T17:54:34.691Z,100.00
2023-04-09T17:57:04.800Z,100.00
2023-04-09T17:59:39.861Z,100.00
2023-04-09T18:02:09.907Z,100.00
2023-04-09T18:04:38.937Z,100.00
2023-04-09T18:07:08.070Z,100.00
2023-04-09T18:09:40.585Z,100.00
2023-04-09T18:12:12.188Z,100.00
2023-04-09T18:14:44.394Z,100.00
2023-04-09T18:17:14.628Z,100.00
2023-04-09T18:19:46.039Z,100.00
2023-04-09T18:22:14.386Z,100.00
2023-04-09T18:24:42.758Z,100.00
2023-04-09T18:27:13.416Z,100.00
2023-04-09T18:29:42.252Z,100.00
2023-04-09T18:32:10.506Z,100.00
2023-04-09T18:34:40.773Z,100.00
2023-04-09T18:37:09.183Z,100.00
2023-04-09T18:39:37.864Z,100.00
2023-04-09T18:42:06.173Z,100.00
2023-04-09T18:44:37.462Z,100.00
2023-04-09T18:47:09.362Z,100.00
2023-04-09T18:49:39.699Z,100.00
2023-04-09T18:52:11.831Z,100.00
2023-04-09T18:54:42.193Z,100.00
2023-04-09T18:57:14.147Z,100.00
2023-04-09T18:59:45.795Z,100.00
2023-04-09T19:02:14.416Z,100.00
2023-04-09T19:04:42.979Z,100.00
2023-04-09T19:07:11.394Z,100.00
2023-04-09T19:09:43.693Z,100.00
2023-04-09T19:12:19.523Z,100.00
2023-04-09T19:14:47.827Z,100.00
2023-04-09T19:17:16.551Z,100.00
2023-04-09T19:19:45.234Z,100.00
2023-04-09T19:22:14.470Z,100.00
2023-04-09T19:24:45.830Z,100.00
2023-04-09T19:27:14.238Z,100.00
2023-04-09T19:29:45.024Z,100.00
2023-04-09T19:32:13.526Z,100.00
2023-04-09T19:34:43.009Z,100.00
2023-04-09T19:37:11.982Z,100.00
2023-04-09T19:39:43.048Z,100.00
2023-04-09T19:42:11.363Z,100.00
2023-04-09T19:44:39.867Z,100.00
2023-04-09T19:47:08.140Z,100.00
2023-04-09T19:49:37.467Z,100.00
2023-04-09T19:52:07.310Z,100.00
2023-04-09T19:54:35.852Z,100.00
2023-04-09T19:57:11.628Z,100.00
2023-04-09T19:59:43.285Z,100.00
2023-04-09T20:02:11.609Z,100.00
2023-04-09T20:04:40.784Z,100.00
2023-04-09T20:07:09.046Z,100.00
2023-04-09T20:09:41.456Z,100.00
2023-04-09T20:12:10.625Z,100.00
2023-04-09T20:14:53.864Z,100.00
2023-04-09T20:17:22.543Z,100.00
2023-04-09T20:19:55.586Z,100.00
2023-04-09T20:22:24.080Z,100.00
2023-04-09T20:24:59.583Z,100.00
2023-04-09T20:27:28.375Z,100.00
2023-04-09T20:29:56.622Z,100.00
2023-04-09T20:32:25.075Z,100.00
2023-04-09T20:34:53.482Z,100.00
2023-04-09T20:37:22.449Z,100.00
2023-04-09T20:39:50.915Z,100.00
2023-04-09T20:42:19.636Z,100.00
2023-04-09T20:44:47.862Z,100.00
2023-04-09T20:47:16.558Z,100.00
2023-04-09T20:49:46.774Z,100.00
2023-04-09T20:52:15.513Z,100.00
2023-04-09T20:54:44.848Z,100.00
2023-04-09T20:57:13.992Z,100.00
2023-04-09T20:59:42.500Z,100.00
2023-04-09T21:02:13.131Z,100.00
2023-04-09T21:04:41.481Z,100.00
2023-04-09T21:07:09.707Z,100.00
2023-04-09T21:09:38.831Z,100.00
2023-04-09T21:12:07.376Z,100.00
2023-04-09T21:14:35.676Z,100.00
2023-04-09T21:17:04.057Z,100.00
2023-04-09T21:19:32.302Z,100.00
2023-04-09T21:22:00.557Z,100.00
2023-04-09T21:24:28.838Z,100.00
2023-04-09T21:26:58.914Z,100.00
2023-04-09T21:29:28.439Z,100.00
2023-04-09T21:31:56.765Z,100.00
2023-04-09T21:34:25.021Z,100.00
2023-04-09T21:36:55.604Z,100.00
2023-04-09T21:39:24.251Z,100.00
2023-04-09T21:41:54.112Z,100.00
2023-04-09T21:44:22.316Z,100.00
2023-04-09T21:46:50.500Z,100.00
2023-04-09T21:49:18.674Z,100.00
2023-04-09T21:51:47.218Z,100.00
2023-04-09T21:54:15.469Z,100.00
2023-04-09T21:56:43.813Z,100.00
2023-04-09T21:59:12.032Z,100.00
2023-04-09T22:01:40.250Z,100.00
2023-04-09T22:04:09.780Z,100.00
2023-04-09T22:06:38.116Z,100.00
2023-04-09T22:09:06.450Z,100.00
2023-04-09T22:11:34.703Z,100.00
2023-04-09T22:14:02.976Z,100.00
2023-04-09T22:16:31.205Z,100.00
2023-04-09T22:18:59.574Z,100.00
2023-04-09T22:21:28.001Z,100.00
2023-04-09T22:23:56.408Z,100.00
2023-04-09T22:26:27.856Z,100.00
2023-04-09T22:28:56.481Z,100.00
2023-04-09T22:31:27.468Z,100.00
2023-04-09T22:33:56.073Z,100.00
2023-04-09T22:36:25.034Z,100.00
2023-04-09T22:38:53.421Z,100.00
2023-04-09T22:41:22.960Z,100.00
2023-04-09T22:43:52.588Z,100.00
2023-04-09T22:46:21.570Z,100.00
2023-04-09T22:48:50.235Z,100.00
2023-04-09T22:51:18.560Z,100.00
2023-04-09T22:53:47.153Z,100.00
2023-04-09T22:56:15.314Z,100.00
2023-04-09T22:58:43.529Z,100.00
2023-04-09T23:01:11.867Z,100.00
2023-04-09T23:03:40.125Z,100.00
2023-04-09T23:06:09.102Z,100.00
2023-04-09T23:08:38.739Z,100.00
2023-04-09T23:11:08.932Z,100.00
2023-04-09T23:13:38.951Z,100.00
2023-04-09T23:16:08.618Z,100.00
2023-04-09T23:18:37.622Z,100.00
2023-04-09T23:21:10.744Z,100.00
2023-04-09T23:23:39.521Z,100.00
2023-04-09T23:26:08.086Z,100.00
2023-04-09T23:28:36.234Z,100.00
2023-04-09T23:31:04.727Z,100.00
2023-04-09T23:33:33.539Z,100.00
2023-04-09T23:36:01.735Z,100.00
2023-04-09T23:38:29.996Z,100.00
2023-04-09T23:40:58.805Z,100.00
2023-04-09T23:43:26.971Z,100.00
2023-04-09T23:45:55.657Z,100.00
2023-04-09T23:48:23.907Z,100.00
2023-04-09T23:50:52.099Z,100.00
2023-04-09T23:53:20.397Z,100.00
2023-04-09T23:55:50.266Z,100.00
2023-04-09T23:58:19.065Z,100.00
